createdAt,value
2016-09-29T00:00:49.467Z,11.58
2016-09-29T00:01:49.425Z,11.6
2016-09-29T00:02:49.393Z,11.58
2016-09-29T00:03:49.359Z,11.51
2016-09-29T00:04:49.327Z,11.49
2016-09-29T00:05:49.289Z,11.46
2016-09-29T00:06:49.250Z,11.44
2016-09-29T00:07:49.219Z,11.46
2016-09-29T00:08:49.197Z,11.46
2016-09-29T00:09:49.156Z,11.47
2016-09-29T00:10:49.115Z,11.42
2016-09-29T00:11:49.075Z,11.39
2016-09-29T00:12:49.048Z,11.44
2016-09-29T00:13:49.008Z,11.42
2016-09-29T00:14:48.977Z,11.39
2016-09-29T00:15:48.637Z,11.35
2016-09-29T00:16:48.901Z,11.37
2016-09-29T00:17:48.863Z,11.39
2016-09-29T00:18:48.831Z,11.29
2016-09-29T00:19:48.792Z,11.27
2016-09-29T00:20:48.461Z,11.37
2016-09-29T00:21:48.735Z,11.36
2016-09-29T00:22:48.685Z,11.25
2016-09-29T00:23:48.652Z,11.28
2016-09-29T00:24:48.615Z,11.32
2016-09-29T00:25:48.281Z,11.39
2016-09-29T00:26:48.546Z,11.32
2016-09-29T00:27:48.509Z,11.28
2016-09-29T00:28:48.479Z,11.28
2016-09-29T00:29:48.446Z,11.32
2016-09-29T00:30:48.409Z,11.32
2016-09-29T00:31:48.372Z,11.27
2016-09-29T00:32:48.331Z,11.29
2016-09-29T00:33:48.298Z,11.25
2016-09-29T00:34:48.263Z,11.22
2016-09-29T00:35:48.233Z,11.27
2016-09-29T00:36:48.198Z,11.25
2016-09-29T00:37:48.163Z,11.24
2016-09-29T00:38:48.125Z,11.19
2016-09-29T00:39:48.094Z,11.17
2016-09-29T00:40:48.054Z,11.18
2016-09-29T00:41:48.019Z,11.17
2016-09-29T00:42:47.985Z,11.21
2016-09-29T00:43:47.646Z,11.18
2016-09-29T00:44:47.912Z,11.24
2016-09-29T00:45:47.577Z,11.17
2016-09-29T00:46:47.238Z,11.27
2016-09-29T00:47:47.805Z,11.18
2016-09-29T00:48:47.787Z,11.22
2016-09-29T00:49:47.135Z,11.18
2016-09-29T00:50:47.695Z,11.17
2016-09-29T00:51:47.366Z,11.19
2016-09-29T00:52:47.626Z,11.22
2016-09-29T00:53:47.599Z,11.18
2016-09-29T00:54:47.258Z,11.22
2016-09-29T00:55:47.524Z,11.19
2016-09-29T00:56:47.482Z,11.18
2016-09-29T00:57:47.452Z,11.1
2016-09-29T00:58:47.414Z,11.14
2016-09-29T00:59:47.381Z,11.14
2016-09-29T01:00:47.365Z,11.09
2016-09-29T01:01:47.309Z,11.04
2016-09-29T01:02:47.273Z,11.11
2016-09-29T01:03:47.239Z,11.06
2016-09-29T01:04:47.200Z,11.11
2016-09-29T01:05:47.165Z,11.04
2016-09-29T01:06:47.130Z,11.04
2016-09-29T01:07:47.097Z,11.03
2016-09-29T01:08:47.065Z,11.03
2016-09-29T01:09:47.022Z,10.91
2016-09-29T01:10:46.686Z,10.96
2016-09-29T01:11:46.653Z,10.96
2016-09-29T01:12:46.920Z,10.96
2016-09-29T01:13:46.887Z,10.89
2016-09-29T01:14:46.542Z,10.94
2016-09-29T01:15:46.208Z,10.97
2016-09-29T01:16:46.781Z,10.92
2016-09-29T01:17:46.742Z,10.97
2016-09-29T01:18:46.704Z,10.97
2016-09-29T01:19:46.668Z,10.96
2016-09-29T01:20:46.634Z,10.96
2016-09-29T01:21:46.599Z,10.86
2016-09-29T01:22:45.957Z,10.89
2016-09-29T01:23:46.530Z,10.89
2016-09-29T01:24:46.492Z,10.86
2016-09-29T01:25:46.452Z,10.92
2016-09-29T01:26:46.419Z,10.82
2016-09-29T01:27:46.380Z,10.82
2016-09-29T01:28:46.351Z,10.88
2016-09-29T01:29:46.314Z,10.85
2016-09-29T01:30:46.286Z,10.84
2016-09-29T01:31:45.942Z,10.84
2016-09-29T01:32:46.208Z,10.74
2016-09-29T01:33:46.178Z,10.85
2016-09-29T01:34:46.131Z,10.79
2016-09-29T01:35:46.094Z,10.85
2016-09-29T01:36:45.760Z,10.78
2016-09-29T01:37:45.727Z,10.78
2016-09-29T01:38:45.990Z,10.78
2016-09-29T01:39:45.972Z,10.76
2016-09-29T01:40:45.928Z,10.86
2016-09-29T01:41:45.887Z,10.79
2016-09-29T01:42:45.851Z,10.84
2016-09-29T01:43:45.509Z,10.79
2016-09-29T01:44:45.478Z,10.78
2016-09-29T01:45:45.739Z,10.78
2016-09-29T01:46:45.705Z,10.85
2016-09-29T01:47:45.674Z,10.7
2016-09-29T01:48:45.635Z,10.71
2016-09-29T01:49:45.295Z,10.71
2016-09-29T01:50:45.568Z,10.68
2016-09-29T01:51:45.530Z,10.67
2016-09-29T01:52:45.493Z,10.67
2016-09-29T01:53:45.459Z,10.71
2016-09-29T01:54:45.419Z,10.73
2016-09-29T01:55:45.385Z,10.66
2016-09-29T01:56:45.351Z,10.68
2016-09-29T01:57:45.011Z,10.67
2016-09-29T01:58:45.279Z,10.68
2016-09-29T01:59:45.246Z,10.73
2016-09-29T02:00:45.213Z,10.63
2016-09-29T02:01:45.171Z,10.7
2016-09-29T02:02:44.834Z,10.61
2016-09-29T02:03:45.100Z,10.6
2016-09-29T02:04:45.063Z,10.59
2016-09-29T02:05:44.726Z,10.67
2016-09-29T02:06:44.698Z,10.56
2016-09-29T02:07:44.955Z,10.59
2016-09-29T02:08:44.922Z,10.6
2016-09-29T02:09:44.896Z,10.6
2016-09-29T02:10:44.848Z,10.55
2016-09-29T02:11:44.823Z,10.66
2016-09-29T02:12:44.479Z,10.6
2016-09-29T02:13:44.741Z,10.63
2016-09-29T02:14:44.709Z,10.52
2016-09-29T02:15:44.374Z,10.56
2016-09-29T02:16:44.634Z,10.6
2016-09-29T02:17:44.603Z,10.53
2016-09-29T02:18:44.570Z,10.51
2016-09-29T02:19:44.528Z,10.48
2016-09-29T02:20:44.187Z,10.56
2016-09-29T02:21:44.159Z,10.51
2016-09-29T02:22:44.423Z,10.48
2016-09-29T02:23:44.387Z,10.38
2016-09-29T02:24:44.354Z,10.45
2016-09-29T02:25:44.307Z,10.36
2016-09-29T02:26:44.290Z,10.32
2016-09-29T02:27:44.244Z,10.45
2016-09-29T02:28:44.201Z,10.36
2016-09-29T02:29:43.875Z,10.38
2016-09-29T02:30:44.138Z,10.38
2016-09-29T02:31:44.104Z,10.36
2016-09-29T02:32:44.071Z,10.33
2016-09-29T02:33:43.724Z,10.29
2016-09-29T02:34:43.690Z,10.27
2016-09-29T02:35:43.956Z,10.33
2016-09-29T02:36:43.922Z,10.27
2016-09-29T02:37:43.882Z,10.23
2016-09-29T02:38:43.543Z,10.33
2016-09-29T02:39:43.809Z,10.25
2016-09-29T02:40:43.472Z,10.32
2016-09-29T02:41:43.734Z,10.23
2016-09-29T02:42:43.705Z,10.25
2016-09-29T02:43:43.666Z,10.26
2016-09-29T02:44:43.636Z,10.26
2016-09-29T02:45:43.595Z,10.18
2016-09-29T02:46:43.557Z,10.27
2016-09-29T02:47:43.519Z,10.17
2016-09-29T02:48:43.187Z,10.15
2016-09-29T02:49:43.146Z,10.27
2016-09-29T02:50:43.415Z,10.14
2016-09-29T02:51:43.073Z,10.11
2016-09-29T02:52:43.341Z,10.15
2016-09-29T02:53:43.308Z,10.23
2016-09-29T02:54:43.271Z,10.15
2016-09-29T02:55:43.234Z,10.17
2016-09-29T02:56:43.198Z,10.25
2016-09-29T02:57:42.857Z,10.17
2016-09-29T02:58:43.124Z,10.2
2016-09-29T02:59:43.086Z,10.2
2016-09-29T03:00:43.053Z,10.23
2016-09-29T03:01:43.035Z,10.09
2016-09-29T03:02:42.995Z,10.18
2016-09-29T03:03:42.640Z,10.08
2016-09-29T03:04:42.909Z,10.09
2016-09-29T03:05:42.269Z,10.09
2016-09-29T03:06:42.837Z,10.07
2016-09-29T03:07:42.800Z,10.09
2016-09-29T03:08:42.766Z,10.09
2016-09-29T03:09:42.729Z,10.04
2016-09-29T03:10:42.690Z,10.02
2016-09-29T03:11:42.653Z,10.04
2016-09-29T03:12:42.327Z,10.12
2016-09-29T03:13:42.282Z,10.08
2016-09-29T03:14:42.557Z,10.02
2016-09-29T03:15:42.511Z,10.05
2016-09-29T03:16:42.478Z,10.05
2016-09-29T03:17:42.137Z,10.02
2016-09-29T03:18:42.405Z,10.04
2016-09-29T03:19:42.365Z,10.08
2016-09-29T03:20:42.028Z,10.02
2016-09-29T03:21:42.298Z,10.08
2016-09-29T03:22:42.261Z,9.97
2016-09-29T03:23:41.926Z,9.96
2016-09-29T03:24:42.189Z,10.02
2016-09-29T03:25:42.145Z,9.96
2016-09-29T03:26:41.811Z,9.96
2016-09-29T03:27:42.078Z,10.08
2016-09-29T03:28:42.037Z,9.97
2016-09-29T03:29:41.704Z,9.89
2016-09-29T03:30:41.972Z,9.87
2016-09-29T03:31:41.933Z,9.9
2016-09-29T03:32:41.893Z,9.97
2016-09-29T03:33:41.867Z,9.9
2016-09-29T03:34:41.824Z,9.99
2016-09-29T03:35:41.787Z,9.9
2016-09-29T03:36:41.752Z,9.93
2016-09-29T03:37:41.713Z,9.94
2016-09-29T03:38:41.681Z,9.91
2016-09-29T03:39:41.648Z,10.01
2016-09-29T03:40:41.606Z,9.86
2016-09-29T03:41:41.573Z,9.94
2016-09-29T03:42:41.236Z,9.9
2016-09-29T03:43:41.197Z,9.81
2016-09-29T03:44:41.461Z,9.81
2016-09-29T03:45:41.423Z,9.83
2016-09-29T03:46:41.389Z,9.78
2016-09-29T03:47:41.351Z,9.86
2016-09-29T03:48:41.313Z,9.81
2016-09-29T03:49:41.286Z,9.78
2016-09-29T03:50:41.246Z,9.78
2016-09-29T03:51:41.209Z,9.78
2016-09-29T03:52:41.175Z,9.72
2016-09-29T03:53:41.133Z,9.79
2016-09-29T03:54:41.102Z,9.81
2016-09-29T03:55:41.061Z,9.64
2016-09-29T03:56:41.023Z,9.78
2016-09-29T03:57:40.992Z,9.68
2016-09-29T03:58:40.952Z,9.66
2016-09-29T03:59:40.921Z,9.68
2016-09-29T04:00:40.884Z,9.69
2016-09-29T04:01:40.852Z,9.64
2016-09-29T04:02:40.807Z,9.66
2016-09-29T04:03:40.774Z,9.53
2016-09-29T04:04:40.734Z,9.57
2016-09-29T04:05:40.696Z,9.57
2016-09-29T04:06:40.665Z,9.51
2016-09-29T04:07:40.635Z,9.54
2016-09-29T04:08:39.988Z,9.56
2016-09-29T04:09:40.558Z,9.65
2016-09-29T04:10:40.212Z,9.54
2016-09-29T04:11:40.478Z,9.54
2016-09-29T04:12:40.140Z,9.51
2016-09-29T04:13:40.408Z,9.57
2016-09-29T04:14:40.373Z,9.54
2016-09-29T04:15:40.339Z,9.47
2016-09-29T04:16:40.304Z,9.53
2016-09-29T04:17:40.263Z,9.54
2016-09-29T04:18:40.224Z,9.51
2016-09-29T04:19:40.186Z,9.5
2016-09-29T04:20:39.854Z,9.5
2016-09-29T04:21:40.120Z,9.48
2016-09-29T04:22:40.077Z,9.51
2016-09-29T04:23:40.047Z,9.47
2016-09-29T04:24:40.006Z,9.48
2016-09-29T04:25:39.669Z,9.42
2016-09-29T04:26:39.936Z,9.48
2016-09-29T04:27:39.895Z,9.56
2016-09-29T04:28:39.860Z,9.51
2016-09-29T04:29:39.823Z,9.43
2016-09-29T04:30:39.783Z,9.48
2016-09-29T04:31:39.752Z,9.47
2016-09-29T04:32:39.421Z,9.47
2016-09-29T04:33:39.675Z,9.42
2016-09-29T04:34:39.640Z,9.43
2016-09-29T04:35:39.301Z,9.46
2016-09-29T04:36:39.568Z,9.51
2016-09-29T04:37:39.230Z,9.48
2016-09-29T04:38:39.498Z,9.47
2016-09-29T04:39:39.456Z,9.43
2016-09-29T04:40:39.423Z,9.5
2016-09-29T04:41:39.390Z,9.48
2016-09-29T04:42:39.350Z,9.46
2016-09-29T04:43:39.313Z,9.46
2016-09-29T04:44:39.275Z,9.46
2016-09-29T04:45:39.239Z,9.48
2016-09-29T04:46:39.207Z,9.4
2016-09-29T04:47:38.871Z,9.43
2016-09-29T04:48:39.128Z,9.39
2016-09-29T04:49:39.096Z,9.4
2016-09-29T04:50:39.056Z,9.4
2016-09-29T04:51:39.015Z,9.4
2016-09-29T04:52:38.680Z,9.33
2016-09-29T04:53:38.946Z,9.35
2016-09-29T04:54:38.909Z,9.31
2016-09-29T04:55:38.874Z,9.32
2016-09-29T04:56:38.835Z,9.28
2016-09-29T04:57:38.800Z,9.29
2016-09-29T04:58:38.769Z,9.39
2016-09-29T04:59:38.729Z,9.24
2016-09-29T05:00:38.693Z,9.32
2016-09-29T05:01:38.653Z,9.32
2016-09-29T05:02:38.614Z,9.31
2016-09-29T05:03:38.579Z,9.28
2016-09-29T05:04:38.552Z,9.32
2016-09-29T05:05:38.505Z,9.32
2016-09-29T05:06:38.473Z,9.31
2016-09-29T05:07:38.437Z,9.26
2016-09-29T05:08:38.402Z,9.31
2016-09-29T05:09:38.359Z,9.28
2016-09-29T05:10:38.323Z,9.33
2016-09-29T05:11:37.984Z,9.31
2016-09-29T05:12:37.953Z,9.36
2016-09-29T05:13:37.912Z,9.26
2016-09-29T05:14:37.871Z,9.35
2016-09-29T05:15:38.153Z,9.31
2016-09-29T05:16:38.102Z,9.29
2016-09-29T05:17:38.061Z,9.26
2016-09-29T05:18:38.027Z,9.29
2016-09-29T05:19:38.005Z,9.46
2016-09-29T05:20:37.961Z,9.48
2016-09-29T05:21:37.922Z,9.4
2016-09-29T05:22:37.885Z,9.39
2016-09-29T05:23:37.849Z,9.48
2016-09-29T05:24:37.811Z,9.43
2016-09-29T05:25:37.771Z,9.38
2016-09-29T05:26:37.747Z,9.42
2016-09-29T05:27:37.401Z,9.51
2016-09-29T05:28:37.662Z,9.48
2016-09-29T05:29:37.325Z,9.56
2016-09-29T05:30:37.590Z,9.58
2016-09-29T05:31:37.552Z,9.57
2016-09-29T05:32:37.521Z,9.68
2016-09-29T05:33:37.480Z,9.69
2016-09-29T05:34:37.443Z,9.68
2016-09-29T05:35:37.415Z,9.78
2016-09-29T05:36:37.368Z,9.81
2016-09-29T05:37:37.333Z,9.76
2016-09-29T05:38:36.994Z,9.89
2016-09-29T05:39:37.260Z,9.96
2016-09-29T05:40:37.225Z,10.01
2016-09-29T05:41:37.189Z,10.07
2016-09-29T05:42:37.151Z,10.07
2016-09-29T05:43:36.811Z,10.04
2016-09-29T05:44:37.077Z,10.12
2016-09-29T05:45:37.046Z,10.17
2016-09-29T05:46:37.007Z,10.18
2016-09-29T05:47:36.969Z,10.2
2016-09-29T05:48:36.933Z,10.33
2016-09-29T05:49:36.898Z,10.4
2016-09-29T05:50:36.860Z,10.51
2016-09-29T05:51:36.823Z,10.55
2016-09-29T05:52:36.785Z,10.71
2016-09-29T05:53:36.751Z,10.73
2016-09-29T05:54:36.718Z,10.7
2016-09-29T05:55:36.377Z,10.85
2016-09-29T05:56:36.644Z,10.82
2016-09-29T05:57:36.303Z,11.02
2016-09-29T05:58:35.966Z,11.02
2016-09-29T05:59:36.535Z,11.11
2016-09-29T06:00:36.498Z,11.17
2016-09-29T06:01:36.165Z,11.25
2016-09-29T06:02:36.433Z,11.37
2016-09-29T06:03:36.086Z,11.43
2016-09-29T06:04:36.357Z,11.49
2016-09-29T06:05:36.321Z,11.54
2016-09-29T06:06:36.286Z,11.6
2016-09-29T06:07:36.254Z,11.8
2016-09-29T06:08:35.908Z,11.7
2016-09-29T06:09:35.889Z,11.79
2016-09-29T06:10:36.146Z,11.83
2016-09-29T06:11:35.809Z,11.9
2016-09-29T06:12:35.769Z,11.95
2016-09-29T06:13:35.732Z,11.96
2016-09-29T06:14:35.997Z,11.99
2016-09-29T06:15:35.966Z,12.14
2016-09-29T06:16:35.929Z,12.17
2016-09-29T06:17:35.893Z,12.17
2016-09-29T06:18:35.860Z,12.34
2016-09-29T06:19:35.833Z,12.28
2016-09-29T06:20:35.785Z,12.46
2016-09-29T06:21:35.452Z,12.53
2016-09-29T06:22:35.726Z,12.6
2016-09-29T06:23:35.380Z,12.71
2016-09-29T06:24:35.649Z,12.82
2016-09-29T06:25:35.310Z,12.89
2016-09-29T06:26:35.281Z,13.01
2016-09-29T06:27:35.242Z,13.03
2016-09-29T06:28:35.208Z,13.1
2016-09-29T06:29:35.171Z,13.03
2016-09-29T06:30:34.836Z,13.12
2016-09-29T06:31:35.114Z,13.23
2016-09-29T06:32:35.075Z,13.22
2016-09-29T06:33:35.034Z,13.36
2016-09-29T06:34:35.303Z,13.38
2016-09-29T06:35:35.265Z,13.45
2016-09-29T06:36:34.930Z,13.55
2016-09-29T06:37:35.197Z,13.55
2016-09-29T06:38:34.868Z,13.6
2016-09-29T06:39:35.131Z,13.67
2016-09-29T06:40:34.795Z,13.66
2016-09-29T06:41:34.790Z,13.73
2016-09-29T06:42:34.723Z,13.81
2016-09-29T06:43:34.991Z,13.88
2016-09-29T06:44:34.961Z,13.91
2016-09-29T06:45:34.924Z,13.92
2016-09-29T06:46:34.294Z,13.96
2016-09-29T06:47:34.861Z,13.91
2016-09-29T06:48:34.521Z,13.99
2016-09-29T06:49:34.790Z,13.97
2016-09-29T06:50:34.151Z,14.02
2016-09-29T06:51:34.422Z,14.1
2016-09-29T06:52:34.091Z,14.14
2016-09-29T06:53:34.355Z,14.2
2016-09-29T06:54:34.332Z,14.18
2016-09-29T06:55:34.289Z,14.22
2016-09-29T06:56:34.551Z,14.27
2016-09-29T06:57:34.520Z,14.33
2016-09-29T06:58:34.485Z,14.42
2016-09-29T06:59:34.456Z,14.45
2016-09-29T07:00:34.124Z,14.37
2016-09-29T07:01:34.389Z,14.52
2016-09-29T07:02:34.368Z,14.46
2016-09-29T07:03:34.318Z,14.45
2016-09-29T07:04:33.987Z,14.45
2016-09-29T07:05:34.258Z,14.57
2016-09-29T07:06:34.219Z,14.57
2016-09-29T07:07:33.884Z,14.55
2016-09-29T07:08:34.152Z,14.72
2016-09-29T07:09:34.125Z,14.86
2016-09-29T07:10:34.103Z,14.92
2016-09-29T07:11:34.054Z,14.99
2016-09-29T07:12:34.022Z,15.1
2016-09-29T07:13:33.687Z,15.46
2016-09-29T07:14:33.659Z,15.64
2016-09-29T07:15:33.919Z,15.93
2016-09-29T07:16:33.890Z,16.05
2016-09-29T07:17:33.859Z,16.21
2016-09-29T07:18:33.519Z,16.31
2016-09-29T07:19:33.789Z,16.34
2016-09-29T07:20:33.767Z,16.34
2016-09-29T07:21:33.137Z,16.39
2016-09-29T07:22:33.392Z,16.35
2016-09-29T07:23:33.668Z,16.39
2016-09-29T07:24:33.326Z,16.43
2016-09-29T07:25:33.602Z,16.61
2016-09-29T07:26:33.567Z,16.7
2016-09-29T07:27:33.538Z,16.76
2016-09-29T07:28:33.503Z,16.81
2016-09-29T07:29:33.166Z,16.83
2016-09-29T07:30:33.445Z,16.85
2016-09-29T07:31:33.421Z,16.93
2016-09-29T07:32:33.381Z,16.82
2016-09-29T07:33:33.343Z,16.93
2016-09-29T07:34:33.011Z,16.93
2016-09-29T07:35:33.280Z,16.81
2016-09-29T07:36:33.251Z,16.82
2016-09-29T07:37:33.216Z,16.79
2016-09-29T07:38:32.888Z,16.82
2016-09-29T07:39:33.154Z,16.81
2016-09-29T07:40:32.821Z,16.79
2016-09-29T07:41:33.094Z,16.78
2016-09-29T07:42:33.070Z,16.68
2016-09-29T07:43:32.728Z,16.7
2016-09-29T07:44:32.695Z,16.66
2016-09-29T07:45:32.964Z,16.68
2016-09-29T07:46:32.647Z,16.68
2016-09-29T07:47:32.608Z,16.76
2016-09-29T07:48:32.887Z,16.73
2016-09-29T07:49:32.840Z,16.66
2016-09-29T07:50:32.808Z,16.7
2016-09-29T07:51:32.786Z,16.7
2016-09-29T07:52:32.748Z,16.78
2016-09-29T07:53:32.714Z,16.78
2016-09-29T07:54:32.685Z,16.82
2016-09-29T07:55:32.650Z,16.76
2016-09-29T07:56:32.620Z,16.78
2016-09-29T07:57:32.590Z,16.76
2016-09-29T07:58:32.564Z,16.83
2016-09-29T07:59:32.227Z,16.86
2016-09-29T08:00:32.500Z,16.78
2016-09-29T08:01:32.173Z,16.81
2016-09-29T08:02:32.436Z,16.83
2016-09-29T08:03:32.401Z,16.81
2016-09-29T08:04:32.070Z,16.79
2016-09-29T08:05:32.339Z,16.83
2016-09-29T08:06:32.006Z,16.82
2016-09-29T08:07:32.277Z,16.85
2016-09-29T08:08:32.245Z,16.85
2016-09-29T08:09:31.912Z,17
2016-09-29T08:10:32.182Z,17
2016-09-29T08:11:32.153Z,17.11
2016-09-29T08:12:32.121Z,17.16
2016-09-29T08:13:31.786Z,17.21
2016-09-29T08:14:31.754Z,17.28
2016-09-29T08:15:31.729Z,17.22
2016-09-29T08:16:31.996Z,17.21
2016-09-29T08:17:31.965Z,17.16
2016-09-29T08:18:31.933Z,17.14
2016-09-29T08:19:31.905Z,17.19
2016-09-29T08:20:31.870Z,17.34
2016-09-29T08:21:31.545Z,17.48
2016-09-29T08:22:31.506Z,17.66
2016-09-29T08:23:31.780Z,17.97
2016-09-29T08:24:31.752Z,18.45
2016-09-29T08:25:31.416Z,19.06
2016-09-29T08:26:31.385Z,19.73
2016-09-29T08:27:31.656Z,20.23
2016-09-29T08:28:31.625Z,21.03
2016-09-29T08:29:31.301Z,21.59
2016-09-29T08:30:31.570Z,22.25
2016-09-29T08:31:31.533Z,22.88
2016-09-29T08:32:31.507Z,23.02
2016-09-29T08:33:31.482Z,23.12
2016-09-29T08:34:31.460Z,23.47
2016-09-29T08:35:31.420Z,23.98
2016-09-29T08:36:30.789Z,24.57
2016-09-29T08:37:31.059Z,25.3
2016-09-29T08:38:31.036Z,26.17
2016-09-29T08:39:31.306Z,27.02
2016-09-29T08:40:31.278Z,27.78
2016-09-29T08:41:31.250Z,28.43
2016-09-29T08:42:30.926Z,28.59
2016-09-29T08:43:31.201Z,28.76
2016-09-29T08:44:31.180Z,29.05
2016-09-29T08:45:30.855Z,29.42
2016-09-29T08:46:30.825Z,29.89
2016-09-29T08:47:31.103Z,30.24
2016-09-29T08:48:30.773Z,30.98
2016-09-29T08:49:31.046Z,31.48
2016-09-29T08:50:31.029Z,32.13
2016-09-29T08:51:30.997Z,32.74
2016-09-29T08:52:30.372Z,33.32
2016-09-29T08:53:30.950Z,33.73
2016-09-29T08:54:30.926Z,33.71
2016-09-29T08:55:30.617Z,33.94
2016-09-29T08:56:30.582Z,34.17
2016-09-29T08:57:30.561Z,34.44
2016-09-29T08:58:30.846Z,34.94
2016-09-29T08:59:30.513Z,35.21
2016-09-29T09:00:30.801Z,35.45
2016-09-29T09:01:30.774Z,35.84
2016-09-29T09:02:30.149Z,36.15
2016-09-29T09:03:30.728Z,36.47
2016-09-29T09:04:30.710Z,36.46
2016-09-29T09:05:30.384Z,36.19
2016-09-29T09:06:30.669Z,36.16
2016-09-29T09:07:30.645Z,36.25
2016-09-29T09:08:30.620Z,36.59
2016-09-29T09:09:30.302Z,36.69
2016-09-29T09:10:30.579Z,36.87
2016-09-29T09:11:30.558Z,37.05
2016-09-29T09:12:30.549Z,37.2
2016-09-29T09:13:30.533Z,37.37
2016-09-29T09:14:30.199Z,37.39
2016-09-29T09:15:30.181Z,37.59
2016-09-29T09:16:30.157Z,37.63
2016-09-29T09:17:30.441Z,37.79
2016-09-29T09:18:30.115Z,38.09
2016-09-29T09:19:30.403Z,38.11
2016-09-29T09:20:30.378Z,38.18
2016-09-29T09:21:30.361Z,37.85
2016-09-29T09:22:30.051Z,37.62
2016-09-29T09:23:30.320Z,37.66
2016-09-29T09:24:30.299Z,37.57
2016-09-29T09:25:30.279Z,37.5
2016-09-29T09:26:30.262Z,37.43
2016-09-29T09:27:29.939Z,37.56
2016-09-29T09:28:30.223Z,37.7
2016-09-29T09:29:30.201Z,37.7
2016-09-29T09:30:30.186Z,37.86
2016-09-29T09:31:30.168Z,37.76
2016-09-29T09:32:30.144Z,37.56
2016-09-29T09:33:30.128Z,37.32
2016-09-29T09:34:29.498Z,37.07
2016-09-29T09:35:29.786Z,37.15
2016-09-29T09:36:29.767Z,37.51
2016-09-29T09:37:30.045Z,37.74
2016-09-29T09:38:30.032Z,37.93
2016-09-29T09:39:29.407Z,38.22
2016-09-29T09:40:29.991Z,38.32
2016-09-29T09:41:29.669Z,38.38
2016-09-29T09:42:29.963Z,38.47
2016-09-29T09:43:29.633Z,38.49
2016-09-29T09:44:29.917Z,38.71
2016-09-29T09:45:29.897Z,38.93
2016-09-29T09:46:29.882Z,39.16
2016-09-29T09:47:29.558Z,39.06
2016-09-29T09:48:29.846Z,38.87
2016-09-29T09:49:29.823Z,38.95
2016-09-29T09:50:29.523Z,39.16
2016-09-29T09:51:29.787Z,39.43
2016-09-29T09:52:29.772Z,39.5
2016-09-29T09:53:29.457Z,39.73
2016-09-29T09:54:29.737Z,39.81
2016-09-29T09:55:29.411Z,39.88
2016-09-29T09:56:29.703Z,39.94
2016-09-29T09:57:29.685Z,40.07
2016-09-29T09:58:29.674Z,40.07
2016-09-29T09:59:29.343Z,40.16
2016-09-29T10:00:29.632Z,40.15
2016-09-29T10:01:29.310Z,40.1
2016-09-29T10:02:29.601Z,39.98
2016-09-29T10:03:29.577Z,39.88
2016-09-29T10:04:29.566Z,39.73
2016-09-29T10:05:29.248Z,39.59
2016-09-29T10:06:29.222Z,39.48
2016-09-29T10:07:29.514Z,39.59
2016-09-29T10:08:29.495Z,39.55
2016-09-29T10:09:29.481Z,39.44
2016-09-29T10:10:29.464Z,39.22
2016-09-29T10:11:29.439Z,39.28
2016-09-29T10:12:29.426Z,39.25
2016-09-29T10:13:29.105Z,39.26
2016-09-29T10:14:29.392Z,39.36
2016-09-29T10:15:29.372Z,39.4
2016-09-29T10:16:29.353Z,39.55
2016-09-29T10:17:29.333Z,39.73
2016-09-29T10:18:29.015Z,39.88
2016-09-29T10:19:29.303Z,40.01
2016-09-29T10:20:28.983Z,40.15
2016-09-29T10:21:29.266Z,40.1
2016-09-29T10:22:28.950Z,39.98
2016-09-29T10:23:29.237Z,39.7
2016-09-29T10:24:29.214Z,39.6
2016-09-29T10:25:29.198Z,39.63
2016-09-29T10:26:29.188Z,39.78
2016-09-29T10:27:29.163Z,39.77
2016-09-29T10:28:29.144Z,39.6
2016-09-29T10:29:28.825Z,39.66
2016-09-29T10:30:29.110Z,39.73
2016-09-29T10:31:29.094Z,39.67
2016-09-29T10:32:28.467Z,39.72
2016-09-29T10:33:29.059Z,39.54
2016-09-29T10:34:29.038Z,39.54
2016-09-29T10:35:28.720Z,39.52
2016-09-29T10:36:29.001Z,39.63
2016-09-29T10:37:28.982Z,39.62
2016-09-29T10:38:28.966Z,39.63
2016-09-29T10:39:28.646Z,39.84
2016-09-29T10:40:28.931Z,39.86
2016-09-29T10:41:28.909Z,39.94
2016-09-29T10:42:28.893Z,39.86
2016-09-29T10:43:28.876Z,39.84
2016-09-29T10:44:28.861Z,39.7
2016-09-29T10:45:28.543Z,39.75
2016-09-29T10:46:28.821Z,39.5
2016-09-29T10:47:28.498Z,39.35
2016-09-29T10:48:28.480Z,39.03
2016-09-29T10:49:28.763Z,38.95
2016-09-29T10:50:28.446Z,38.83
2016-09-29T10:51:28.738Z,38.71
2016-09-29T10:52:28.710Z,38.59
2016-09-29T10:53:28.690Z,38.47
2016-09-29T10:54:28.673Z,38.3
2016-09-29T10:55:28.052Z,38.25
2016-09-29T10:56:28.336Z,38.06
2016-09-29T10:57:28.617Z,37.91
2016-09-29T10:58:28.299Z,37.85
2016-09-29T10:59:28.584Z,37.86
2016-09-29T11:00:27.967Z,37.86
2016-09-29T11:01:28.550Z,37.91
2016-09-29T11:02:28.528Z,37.78
2016-09-29T11:03:28.507Z,37.59
2016-09-29T11:04:28.489Z,37.55
2016-09-29T11:05:28.166Z,37.46
2016-09-29T11:06:28.454Z,37.2
2016-09-29T11:07:27.827Z,36.99
2016-09-29T11:08:28.111Z,36.69
2016-09-29T11:09:28.098Z,36.43
2016-09-29T11:10:28.377Z,36.19
2016-09-29T11:11:27.749Z,35.97
2016-09-29T11:12:28.035Z,35.6
2016-09-29T11:13:28.014Z,35.29
2016-09-29T11:14:28.294Z,35.1
2016-09-29T11:15:27.990Z,34.96
2016-09-29T11:16:28.255Z,34.66
2016-09-29T11:17:28.233Z,34.46
2016-09-29T11:18:27.914Z,34.12
2016-09-29T11:19:27.890Z,33.76
2016-09-29T11:20:28.175Z,33.49
2016-09-29T11:21:27.857Z,33.07
2016-09-29T11:22:28.129Z,32.75
2016-09-29T11:23:28.111Z,32.4
2016-09-29T11:24:28.093Z,32.01
2016-09-29T11:25:27.765Z,31.57
2016-09-29T11:26:27.743Z,31.16
2016-09-29T11:27:28.024Z,30.91
2016-09-29T11:28:27.404Z,30.53
2016-09-29T11:29:27.984Z,30.1
2016-09-29T11:30:27.956Z,29.65
2016-09-29T11:31:27.631Z,29.28
2016-09-29T11:32:27.612Z,28.96
2016-09-29T11:33:27.581Z,28.61
2016-09-29T11:34:27.865Z,28.27
2016-09-29T11:35:27.540Z,27.93
2016-09-29T11:36:27.515Z,27.75
2016-09-29T11:37:27.793Z,27.6
2016-09-29T11:38:27.773Z,27.29
2016-09-29T11:39:27.749Z,27.09
2016-09-29T11:40:27.733Z,27.03
2016-09-29T11:41:27.695Z,26.81
2016-09-29T11:42:27.078Z,26.63
2016-09-29T11:43:27.350Z,26.54
2016-09-29T11:44:27.628Z,26.43
2016-09-29T11:45:27.298Z,26.17
2016-09-29T11:46:27.575Z,26.21
2016-09-29T11:47:27.564Z,25.99
2016-09-29T11:48:26.919Z,25.99
2016-09-29T11:49:27.197Z,25.77
2016-09-29T11:50:27.472Z,25.72
2016-09-29T11:51:27.463Z,25.61
2016-09-29T11:52:27.430Z,25.54
2016-09-29T11:53:27.400Z,25.43
2016-09-29T11:54:27.067Z,25.36
2016-09-29T11:55:27.342Z,25.24
2016-09-29T11:56:27.017Z,25.21
2016-09-29T11:57:27.292Z,25.08
2016-09-29T11:58:26.966Z,25.06
2016-09-29T11:59:27.245Z,24.93
2016-09-29T12:00:27.218Z,24.83
2016-09-29T12:01:27.192Z,24.69
2016-09-29T12:02:26.555Z,24.71
2016-09-29T12:03:27.141Z,24.6
2016-09-29T12:04:27.106Z,24.64
2016-09-29T12:05:26.793Z,24.57
2016-09-29T12:06:26.755Z,24.46
2016-09-29T12:07:27.027Z,24.5
2016-09-29T12:08:26.998Z,24.52
2016-09-29T12:09:26.975Z,24.5
2016-09-29T12:10:26.645Z,24.55
2016-09-29T12:11:26.921Z,24.5
2016-09-29T12:12:26.607Z,24.5
2016-09-29T12:13:26.871Z,24.5
2016-09-29T12:14:26.840Z,24.43
2016-09-29T12:15:26.812Z,24.43
2016-09-29T12:16:26.788Z,24.42
2016-09-29T12:17:26.758Z,24.42
2016-09-29T12:18:26.431Z,24.37
2016-09-29T12:19:26.400Z,24.3
2016-09-29T12:20:26.680Z,24.16
2016-09-29T12:21:26.049Z,24.22
2016-09-29T12:22:26.320Z,24.3
2016-09-29T12:23:26.293Z,24.15
2016-09-29T12:24:26.266Z,24.27
2016-09-29T12:25:25.935Z,24.24
2016-09-29T12:26:26.214Z,24.15
2016-09-29T12:27:26.489Z,24.13
2016-09-29T12:28:26.163Z,24.13
2016-09-29T12:29:26.141Z,24.15
2016-09-29T12:30:26.105Z,24.08
2016-09-29T12:31:26.380Z,24.1
2016-09-29T12:32:26.048Z,24.12
2016-09-29T12:33:25.717Z,24.12
2016-09-29T12:34:25.991Z,24.05
2016-09-29T12:35:26.281Z,23.98
2016-09-29T12:36:25.941Z,24.03
2016-09-29T12:37:26.212Z,24
2016-09-29T12:38:26.186Z,23.98
2016-09-29T12:39:26.159Z,24.06
2016-09-29T12:40:26.138Z,23.97
2016-09-29T12:41:25.498Z,23.95
2016-09-29T12:42:25.771Z,24.02
2016-09-29T12:43:26.044Z,24.03
2016-09-29T12:44:26.022Z,23.87
2016-09-29T12:45:25.692Z,23.9
2016-09-29T12:46:25.971Z,23.79
2016-09-29T12:47:25.937Z,23.83
2016-09-29T12:48:25.927Z,23.84
2016-09-29T12:49:25.581Z,23.66
2016-09-29T12:50:25.860Z,23.73
2016-09-29T12:51:25.526Z,23.73
2016-09-29T12:52:25.796Z,23.75
2016-09-29T12:53:25.471Z,23.73
2016-09-29T12:54:25.751Z,23.68
2016-09-29T12:55:25.714Z,23.72
2016-09-29T12:56:25.399Z,23.75
2016-09-29T12:57:25.366Z,23.69
2016-09-29T12:58:25.030Z,23.7
2016-09-29T12:59:25.604Z,23.68